createdAt,value
2023-01-27T00:00:00.196Z,0.34
2023-01-27T00:03:05.746Z,0.34
2023-01-27T00:06:14.781Z,0.30
2023-01-27T00:09:20.166Z,0.28
2023-01-27T00:12:44.133Z,0.30
2023-01-27T00:15:49.376Z,0.27
2023-01-27T00:18:54.693Z,0.31
2023-01-27T00:22:18.868Z,0.23
2023-01-27T00:25:23.836Z,0.24
2023-01-27T00:28:31.333Z,0.22
2023-01-27T00:31:54.157Z,0.22
2023-01-27T00:34:59.268Z,0.20
2023-01-27T00:38:06.534Z,0.19
2023-01-27T00:41:20.789Z,0.25
2023-01-27T00:44:26.350Z,0.21
2023-01-27T00:47:31.477Z,0.23
2023-01-27T00:50:36.626Z,0.19
2023-01-27T00:53:43.683Z,0.18
2023-01-27T00:56:49.861Z,0.15
2023-01-27T00:59:54.919Z,0.15
2023-01-27T01:02:59.929Z,0.09
2023-01-27T01:06:07.274Z,0.06
2023-01-27T01:09:13.947Z,0.01
2023-01-27T01:12:19.330Z,0.01
2023-01-27T01:15:26.771Z,0.02
2023-01-27T01:18:31.885Z,0.02
2023-01-27T01:21:40.111Z,-0.00
2023-01-27T01:24:47.243Z,0.01
2023-01-27T01:27:52.555Z,-0.03
2023-01-27T01:31:01.547Z,-0.04
2023-01-27T01:34:07.446Z,-0.05
2023-01-27T01:37:13.497Z,-0.05
2023-01-27T01:40:25.656Z,-0.05
2023-01-27T01:43:30.768Z,-0.04
2023-01-27T01:46:36.798Z,-0.11
2023-01-27T01:49:42.633Z,-0.15
2023-01-27T01:52:56.640Z,-0.12
2023-01-27T01:56:10.308Z,-0.17
2023-01-27T01:59:22.495Z,-0.16
2023-01-27T02:02:28.399Z,-0.19
2023-01-27T02:05:36.376Z,-0.14
2023-01-27T02:08:42.999Z,-0.23
2023-01-27T02:11:49.728Z,-0.22
2023-01-27T02:14:55.129Z,-0.23
2023-01-27T02:18:00.723Z,-0.20
2023-01-27T02:21:07.000Z,-0.22
2023-01-27T02:24:15.374Z,-0.28
2023-01-27T02:27:21.979Z,-0.24
2023-01-27T02:30:27.322Z,-0.27
2023-01-27T02:33:32.792Z,-0.30
2023-01-27T02:36:42.130Z,-0.39
2023-01-27T02:39:48.190Z,-0.33
2023-01-27T02:42:56.361Z,-0.35
2023-01-27T02:46:01.635Z,-0.37
2023-01-27T02:49:07.144Z,-0.35
2023-01-27T02:52:14.132Z,-0.39
2023-01-27T02:55:19.508Z,-0.39
2023-01-27T02:58:26.239Z,-0.32
2023-01-27T03:01:36.865Z,-0.41
2023-01-27T03:04:42.156Z,-0.36
2023-01-27T03:07:47.388Z,-0.37
2023-01-27T03:10:53.371Z,-0.40
2023-01-27T03:14:01.649Z,-0.42
2023-01-27T03:17:24.132Z,-0.39
2023-01-27T03:20:29.448Z,-0.39
2023-01-27T03:23:35.571Z,-0.40
2023-01-27T03:26:42.005Z,-0.40
2023-01-27T03:29:56.107Z,-0.37
2023-01-27T03:33:03.446Z,-0.39
2023-01-27T03:36:45.893Z,-0.43
2023-01-27T03:40:08.686Z,-0.37
2023-01-27T03:43:31.946Z,-0.41
2023-01-27T03:46:39.125Z,-0.42
2023-01-27T03:49:44.195Z,-0.47
2023-01-27T03:53:04.115Z,-0.47
2023-01-27T03:56:09.834Z,-0.38
2023-01-27T03:59:15.094Z,-0.47
2023-01-27T04:02:39.018Z,-0.52
2023-01-27T04:06:02.254Z,-0.56
2023-01-27T04:09:08.781Z,-0.55
2023-01-27T04:12:14.720Z,-0.54
2023-01-27T04:15:19.797Z,-0.58
2023-01-27T04:18:28.899Z,-0.58
2023-01-27T04:21:34.233Z,-0.59
2023-01-27T04:24:39.478Z,-0.53
2023-01-27T04:27:44.625Z,-0.61
2023-01-27T04:30:50.005Z,-0.60
2023-01-27T04:33:56.594Z,-0.65
2023-01-27T04:37:03.909Z,-0.67
2023-01-27T04:40:10.304Z,-0.81
2023-01-27T04:43:16.068Z,-0.80
2023-01-27T04:46:25.708Z,-0.91
2023-01-27T04:49:32.307Z,-0.86
2023-01-27T04:52:37.433Z,-0.87
2023-01-27T04:55:43.513Z,-0.87
2023-01-27T04:58:48.680Z,-0.87
2023-01-27T05:01:53.964Z,-0.87
2023-01-27T05:05:04.670Z,-0.87
2023-01-27T05:08:11.481Z,-1.05
2023-01-27T05:11:16.838Z,-1.00
2023-01-27T05:14:23.765Z,-0.86
2023-01-27T05:17:34.145Z,-1.02
2023-01-27T05:20:40.950Z,-0.93
2023-01-27T05:23:46.119Z,-0.80
2023-01-27T05:26:51.267Z,-1.00
2023-01-27T05:29:57.252Z,-0.91
2023-01-27T05:33:02.559Z,-0.90
2023-01-27T05:36:14.740Z,-0.87
2023-01-27T05:39:19.973Z,-0.90
2023-01-27T05:42:25.159Z,-1.07
2023-01-27T05:45:30.440Z,-1.04
2023-01-27T05:48:36.962Z,-1.02
2023-01-27T05:51:43.557Z,-1.08
2023-01-27T05:54:48.620Z,-0.97
2023-01-27T05:57:55.941Z,-0.99
2023-01-27T06:01:10.597Z,-1.04
2023-01-27T06:04:16.140Z,-1.02
2023-01-27T06:07:22.823Z,-1.03
2023-01-27T06:10:28.398Z,-1.07
2023-01-27T06:13:35.923Z,-1.05
2023-01-27T06:16:41.346Z,-1.03
2023-01-27T06:19:46.572Z,-1.08
2023-01-27T06:22:53.339Z,-1.15
2023-01-27T06:26:01.837Z,-1.23
2023-01-27T06:29:07.142Z,-1.25
2023-01-27T06:32:12.829Z,-1.18
2023-01-27T06:35:18.364Z,-1.19
2023-01-27T06:38:25.017Z,-1.25
2023-01-27T06:41:30.467Z,-1.25
2023-01-27T06:44:35.637Z,-1.32
2023-01-27T06:47:41.720Z,-1.27
2023-01-27T06:50:47.035Z,-1.18
2023-01-27T06:53:53.844Z,-1.22
2023-01-27T06:56:59.069Z,-1.37
2023-01-27T07:00:05.062Z,-1.46
2023-01-27T07:03:13.035Z,-1.23
2023-01-27T07:06:19.129Z,-1.19
2023-01-27T07:09:25.847Z,-1.11
2023-01-27T07:12:32.163Z,-1.04
2023-01-27T07:15:37.887Z,-1.07
2023-01-27T07:18:43.091Z,-1.17
2023-01-27T07:21:48.116Z,-1.09
2023-01-27T07:24:55.836Z,-1.06
2023-01-27T07:28:01.565Z,-1.26
2023-01-27T07:31:07.011Z,-1.41
2023-01-27T07:34:13.863Z,-1.13
2023-01-27T07:37:19.172Z,-1.05
2023-01-27T07:40:25.773Z,-1.01
2023-01-27T07:43:31.180Z,-1.02
2023-01-27T07:46:36.444Z,-1.09
2023-01-27T07:49:41.645Z,-0.98
2023-01-27T07:52:46.765Z,-0.97
2023-01-27T07:55:53.479Z,-1.03
2023-01-27T07:58:58.692Z,-1.07
2023-01-27T08:02:03.985Z,-1.01
2023-01-27T08:05:10.035Z,-0.93
2023-01-27T08:08:16.265Z,-0.93
2023-01-27T08:11:22.732Z,-1.02
2023-01-27T08:14:28.311Z,-1.07
2023-01-27T08:17:33.172Z,-1.03
2023-01-27T08:20:38.416Z,-0.92
2023-01-27T08:23:43.557Z,-0.89
2023-01-27T08:26:50.193Z,-0.85
2023-01-27T08:29:56.186Z,-0.80
2023-01-27T08:33:01.160Z,-0.80
2023-01-27T08:36:08.401Z,-0.74
2023-01-27T08:39:13.701Z,-0.75
2023-01-27T08:42:21.691Z,-0.70
2023-01-27T08:45:27.658Z,-0.72
2023-01-27T08:48:33.592Z,-0.73
2023-01-27T08:51:38.844Z,-0.74
2023-01-27T08:54:44.149Z,-0.71
2023-01-27T08:57:50.768Z,-0.71
2023-01-27T09:00:56.278Z,-0.73
2023-01-27T09:04:01.575Z,-0.68
2023-01-27T09:07:06.803Z,-0.59
2023-01-27T09:10:15.584Z,-0.59
2023-01-27T09:13:23.396Z,-0.44
2023-01-27T09:16:29.502Z,-0.42
2023-01-27T09:19:34.726Z,-0.39
2023-01-27T09:22:41.444Z,-0.31
2023-01-27T09:25:46.633Z,-0.24
2023-01-27T09:28:53.247Z,-0.36
2023-01-27T09:31:58.701Z,-0.27
2023-01-27T09:35:04.386Z,-0.13
2023-01-27T09:38:09.761Z,-0.03
2023-01-27T09:41:46.332Z,-0.10
2023-01-27T09:45:22.550Z,-0.08
2023-01-27T09:48:39.922Z,-0.01
2023-01-27T09:51:54.084Z,-0.02
2023-01-27T09:55:08.972Z,-0.02
2023-01-27T09:58:24.699Z,-0.03
2023-01-27T10:01:36.153Z,-0.21
2023-01-27T10:05:16.394Z,-0.11
2023-01-27T10:08:32.463Z,-0.15
2023-01-27T10:11:44.436Z,-0.08
2023-01-27T10:14:55.360Z,-0.08
2023-01-27T10:18:07.324Z,-0.10
2023-01-27T10:21:18.571Z,-0.04
2023-01-27T10:24:34.390Z,-0.02
2023-01-27T10:27:41.151Z,0.05
2023-01-27T10:30:53.056Z,0.10
2023-01-27T10:34:03.618Z,0.17
2023-01-27T10:37:18.746Z,0.21
2023-01-27T10:40:30.717Z,0.26
2023-01-27T10:43:44.141Z,0.29
2023-01-27T10:46:55.580Z,0.24
2023-01-27T10:50:04.643Z,0.34
2023-01-27T10:53:15.466Z,0.33
2023-01-27T10:56:28.027Z,0.30
2023-01-27T11:00:14.332Z,0.40
2023-01-27T11:03:24.391Z,0.33
2023-01-27T11:06:36.580Z,0.39
2023-01-27T11:09:48.828Z,0.46
2023-01-27T11:12:56.543Z,0.37
2023-01-27T11:16:02.630Z,0.42
2023-01-27T11:19:15.759Z,0.43
2023-01-27T11:22:24.713Z,0.52
2023-01-27T11:25:35.385Z,0.49
2023-01-27T11:28:43.915Z,0.46
2023-01-27T11:31:54.999Z,0.50
2023-01-27T11:35:05.549Z,0.47
2023-01-27T11:38:16.746Z,0.43
2023-01-27T11:41:22.100Z,0.50
2023-01-27T11:44:29.574Z,0.53
2023-01-27T11:47:40.339Z,0.63
2023-01-27T11:50:46.269Z,0.63
2023-01-27T11:53:56.741Z,0.62
2023-01-27T11:57:02.246Z,0.66
2023-01-27T12:00:13.070Z,0.71
2023-01-27T12:03:22.335Z,0.75
2023-01-27T12:06:34.926Z,0.78
2023-01-27T12:09:42.775Z,0.77
2023-01-27T12:12:47.889Z,0.82
2023-01-27T12:15:55.413Z,0.85
2023-01-27T12:19:04.708Z,0.86
2023-01-27T12:22:15.119Z,0.89
2023-01-27T12:25:28.020Z,0.85
2023-01-27T12:28:35.863Z,0.88
2023-01-27T12:31:48.857Z,0.87
2023-01-27T12:34:56.526Z,0.89
2023-01-27T12:38:04.629Z,0.88
2023-01-27T12:41:13.059Z,0.84
2023-01-27T12:44:20.019Z,0.83
2023-01-27T12:51:05.758Z,0.81
2023-01-27T12:54:23.131Z,0.79
2023-01-27T12:57:33.000Z,0.81
2023-01-27T13:00:38.543Z,0.80
2023-01-27T13:03:44.412Z,0.79
2023-01-27T13:06:52.820Z,0.79
2023-01-27T13:10:02.589Z,0.79
2023-01-27T13:13:20.801Z,0.72
2023-01-27T13:16:29.071Z,0.69
2023-01-27T13:19:41.953Z,0.73
2023-01-27T13:22:50.868Z,0.72
2023-01-27T13:26:03.589Z,0.72
2023-01-27T13:29:16.309Z,0.76
2023-01-27T13:32:25.454Z,0.76
2023-01-27T13:35:35.778Z,0.79
2023-01-27T13:38:47.155Z,0.72
2023-01-27T13:41:55.778Z,0.75
2023-01-27T13:45:06.278Z,0.72
2023-01-27T13:48:17.857Z,0.66
2023-01-27T13:51:25.151Z,0.62
2023-01-27T13:54:30.463Z,0.63
2023-01-27T13:57:53.528Z,0.65
2023-01-27T14:01:05.647Z,0.63
2023-01-27T14:04:32.865Z,0.61
2023-01-27T14:07:42.633Z,0.64
2023-01-27T14:11:01.445Z,0.65
2023-01-27T14:14:27.974Z,0.55
2023-01-27T14:17:43.258Z,0.48
2023-01-27T14:20:58.025Z,0.52
2023-01-27T14:24:06.570Z,0.48
2023-01-27T14:27:16.026Z,0.44
2023-01-27T14:30:25.514Z,0.37
2023-01-27T14:33:44.161Z,0.33
2023-01-27T14:36:52.872Z,0.32
2023-01-27T14:40:13.303Z,0.28
2023-01-27T14:43:25.677Z,0.26
2023-01-27T14:46:49.679Z,0.28
2023-01-27T14:50:05.824Z,0.26
2023-01-27T14:53:34.339Z,0.17
2023-01-27T14:56:44.784Z,0.13
2023-01-27T14:59:56.188Z,0.19
2023-01-27T15:03:28.111Z,0.16
2023-01-27T15:06:42.536Z,0.08
2023-01-27T15:10:21.518Z,0.08
2023-01-27T15:13:39.040Z,0.09
2023-01-27T15:16:51.868Z,0.07
2023-01-27T15:20:26.173Z,0.02
2023-01-27T15:23:49.184Z,-0.03
2023-01-27T15:26:54.789Z,-0.10
2023-01-27T15:30:08.019Z,-0.17
2023-01-27T15:33:47.664Z,-0.08
2023-01-27T15:37:03.819Z,-0.05
2023-01-27T15:40:17.544Z,-0.06
2023-01-27T15:43:23.523Z,0.01
2023-01-27T15:46:33.166Z,0.00
2023-01-27T15:49:41.406Z,-0.08
2023-01-27T15:52:47.614Z,-0.02
2023-01-27T15:55:57.252Z,0.01
2023-01-27T15:59:07.109Z,-0.00
2023-01-27T16:02:18.350Z,-0.04
2023-01-27T16:05:26.989Z,-0.13
2023-01-27T16:08:34.209Z,-0.20
2023-01-27T16:11:44.744Z,-0.21
2023-01-27T16:14:50.268Z,-0.25
2023-01-27T16:18:03.558Z,-0.29
2023-01-27T16:21:29.287Z,-0.28
2023-01-27T16:24:37.643Z,-0.25
2023-01-27T16:27:48.161Z,-0.18
2023-01-27T16:31:03.523Z,-0.20
2023-01-27T16:34:16.470Z,-0.26
2023-01-27T16:37:25.202Z,-0.32
2023-01-27T16:40:32.049Z,-0.29
2023-01-27T16:43:45.047Z,-0.31
2023-01-27T16:46:52.293Z,-0.27
2023-01-27T16:49:57.230Z,-0.22
2023-01-27T16:53:03.657Z,-0.26
2023-01-27T16:56:16.020Z,-0.34
2023-01-27T16:59:24.429Z,-0.37
2023-01-27T17:02:32.177Z,-0.34
2023-01-27T17:05:37.343Z,-0.35
2023-01-27T17:08:45.957Z,-0.43
2023-01-27T17:11:51.484Z,-0.45
2023-01-27T17:14:58.229Z,-0.44
2023-01-27T17:18:05.763Z,-0.47
2023-01-27T17:21:11.385Z,-0.46
2023-01-27T17:24:19.451Z,-0.51
2023-01-27T17:27:27.501Z,-0.63
2023-01-27T17:30:39.534Z,-0.57
2023-01-27T17:33:47.938Z,-0.63
2023-01-27T17:37:15.972Z,-0.61
2023-01-27T17:40:23.070Z,-0.63
2023-01-27T17:43:32.048Z,-0.71
2023-01-27T17:46:38.932Z,-0.73
2023-01-27T17:49:44.944Z,-0.68
2023-01-27T17:52:52.742Z,-0.74
2023-01-27T17:55:59.502Z,-0.79
2023-01-27T17:59:07.925Z,-0.84
2023-01-27T18:02:21.708Z,-0.84
2023-01-27T18:05:30.182Z,-0.86
2023-01-27T18:08:36.092Z,-0.89
2023-01-27T18:11:41.342Z,-0.88
2023-01-27T18:14:46.589Z,-0.92
2023-01-27T18:18:01.910Z,-0.88
2023-01-27T18:21:13.809Z,-0.91
2023-01-27T18:24:21.664Z,-0.86
2023-01-27T18:27:30.157Z,-0.89
2023-01-27T18:30:35.465Z,-0.91
2023-01-27T18:33:43.907Z,-0.93
2023-01-27T18:36:54.683Z,-0.91
2023-01-27T18:40:29.180Z,-0.98
2023-01-27T18:43:34.347Z,-0.98
2023-01-27T18:46:39.878Z,-1.02
2023-01-27T18:49:46.482Z,-0.98
2023-01-27T18:52:52.701Z,-1.00
2023-01-27T18:55:59.103Z,-1.13
2023-01-27T18:59:05.953Z,-1.05
2023-01-27T19:02:16.721Z,-1.00
2023-01-27T19:05:25.201Z,-1.07
2023-01-27T19:08:30.360Z,-1.05
2023-01-27T19:11:35.290Z,-1.06
2023-01-27T19:14:42.021Z,-1.10
2023-01-27T19:17:47.757Z,-1.05
2023-01-27T19:20:54.960Z,-1.04
2023-01-27T19:24:00.617Z,-1.05
2023-01-27T19:27:05.550Z,-1.10
2023-01-27T19:30:26.414Z,-1.05
2023-01-27T19:33:33.413Z,-1.08
2023-01-27T19:36:44.304Z,-1.13
2023-01-27T19:39:49.958Z,-1.04
2023-01-27T19:42:54.933Z,-1.09
2023-01-27T19:46:01.984Z,-1.02
2023-01-27T19:49:07.612Z,-0.99
2023-01-27T19:52:15.996Z,-1.02
2023-01-27T19:55:22.056Z,-1.02
2023-01-27T19:58:28.936Z,-0.99
2023-01-27T20:01:35.122Z,-1.02
2023-01-27T20:04:40.399Z,-1.10
2023-01-27T20:07:50.793Z,-1.13
2023-01-27T20:10:55.821Z,-1.19
2023-01-27T20:14:11.810Z,-1.16
2023-01-27T20:17:18.985Z,-1.10
2023-01-27T20:20:25.406Z,-1.11
2023-01-27T20:23:32.984Z,-1.05
2023-01-27T20:26:38.235Z,-1.09
2023-01-27T20:29:45.222Z,-1.08
2023-01-27T20:32:50.871Z,-1.09
2023-01-27T20:35:56.149Z,-1.04
2023-01-27T20:39:02.395Z,-1.06
2023-01-27T20:42:07.833Z,-1.19
2023-01-27T20:45:13.284Z,-1.15
2023-01-27T20:48:20.565Z,-1.22
2023-01-27T20:51:26.013Z,-1.16
2023-01-27T20:54:32.843Z,-1.19
2023-01-27T20:57:38.763Z,-1.15
2023-01-27T21:00:44.844Z,-1.16
2023-01-27T21:03:50.738Z,-1.20
2023-01-27T21:06:56.153Z,-1.23
2023-01-27T21:10:04.233Z,-1.16
2023-01-27T21:13:09.337Z,-1.21
2023-01-27T21:16:15.634Z,-1.19
2023-01-27T21:19:20.960Z,-1.20
2023-01-27T21:22:26.281Z,-1.23
2023-01-27T21:25:33.585Z,-1.16
2023-01-27T21:28:38.807Z,-1.21
2023-01-27T21:31:44.036Z,-1.19
2023-01-27T21:34:49.248Z,-1.19
2023-01-27T21:37:54.585Z,-1.19
2023-01-27T21:41:07.631Z,-1.21
2023-01-27T21:44:35.828Z,-1.21
2023-01-27T21:47:40.757Z,-1.23
2023-01-27T21:50:46.017Z,-1.21
2023-01-27T21:53:51.462Z,-1.18
2023-01-27T21:56:58.040Z,-1.19
2023-01-27T22:00:03.548Z,-1.22
2023-01-27T22:03:16.936Z,-1.21
2023-01-27T22:06:22.112Z,-1.19
2023-01-27T22:09:27.309Z,-1.24
2023-01-27T22:12:33.912Z,-1.20
2023-01-27T22:15:39.362Z,-1.28
2023-01-27T22:18:45.160Z,-1.23
2023-01-27T22:21:50.252Z,-1.25
2023-01-27T22:24:56.066Z,-1.26
2023-01-27T22:28:02.795Z,-1.29
2023-01-27T22:31:08.409Z,-1.24
2023-01-27T22:34:13.660Z,-1.22
2023-01-27T22:37:18.841Z,-1.22
2023-01-27T22:40:24.682Z,-1.21
2023-01-27T22:43:31.271Z,-1.23
2023-01-27T22:46:36.468Z,-1.19
2023-01-27T22:49:41.649Z,-1.16
2023-01-27T22:52:47.562Z,-1.10
2023-01-27T22:55:59.213Z,-1.12
2023-01-27T22:59:06.148Z,-1.15
2023-01-27T23:02:11.330Z,-1.11
2023-01-27T23:05:17.299Z,-1.26
2023-01-27T23:08:22.607Z,-1.23
2023-01-27T23:11:27.751Z,-1.23
2023-01-27T23:14:34.385Z,-1.25
2023-01-27T23:17:39.561Z,-1.36
2023-01-27T23:20:45.045Z,-1.38
2023-01-27T23:23:52.113Z,-1.45
2023-01-27T23:26:57.347Z,-1.39
2023-01-27T23:30:04.065Z,-1.54
2023-01-27T23:33:12.421Z,-1.39
2023-01-27T23:36:17.573Z,-1.44
2023-01-27T23:39:23.354Z,-1.49
2023-01-27T23:42:28.468Z,-1.46
2023-01-27T23:45:35.395Z,-1.47
2023-01-27T23:48:41.880Z,-1.44
2023-01-27T23:51:47.531Z,-1.42
2023-01-27T23:54:52.627Z,-1.43
2023-01-27T23:57:58.016Z,-1.43
